sensor_id;sensor_type;location;lat;lon;timestamp;P1;durP1;ratioP1;P2;durP2;ratioP2
17365;SDS011;8800;50.118;9.900;2024-03-02T00:00:34;46.35;;;22.63;;
17365;SDS011;8800;50.118;9.900;2024-03-02T00:03:01;46.60;;;22.08;;
17365;SDS011;8800;50.118;9.900;2024-03-02T00:05:29;42.55;;;21.20;;
17365;SDS011;8800;50.118;9.900;2024-03-02T00:07:57;45.83;;;22.25;;
17365;SDS011;8800;50.118;9.900;2024-03-02T00:10:25;43.85;;;22.60;;
17365;SDS011;8800;50.118;9.900;2024-03-02T00:12:54;46.65;;;22.52;;
17365;SDS011;8800;50.118;9.900;2024-03-02T00:15:29;52.05;;;23.23;;
17365;SDS011;8800;50.118;9.900;2024-03-02T00:17:58;50.53;;;23.92;;
17365;SDS011;8800;50.118;9.900;2024-03-02T00:20:24;45.75;;;24.55;;
17365;SDS011;8800;50.118;9.900;2024-03-02T00:22:53;48.50;;;24.60;;
17365;SDS011;8800;50.118;9.900;2024-03-02T00:25:23;44.25;;;22.13;;
17365;SDS011;8800;50.118;9.900;2024-03-02T00:27:49;43.20;;;23.33;;
17365;SDS011;8800;50.118;9.900;2024-03-02T00:30:27;47.85;;;23.20;;
17365;SDS011;8800;50.118;9.900;2024-03-02T00:33:05;46.17;;;22.42;;
17365;SDS011;8800;50.118;9.900;2024-03-02T00:35:32;43.03;;;21.63;;
17365;SDS011;8800;50.118;9.900;2024-03-02T00:38:02;44.75;;;21.48;;
17365;SDS011;8800;50.118;9.900;2024-03-02T00:40:29;45.28;;;21.90;;
17365;SDS011;8800;50.118;9.900;2024-03-02T00:42:56;46.95;;;21.77;;
17365;SDS011;8800;50.118;9.900;2024-03-02T00:45:22;43.70;;;21.25;;
17365;SDS011;8800;50.118;9.900;2024-03-02T00:47:50;45.80;;;22.73;;
17365;SDS011;8800;50.118;9.900;2024-03-02T00:50:19;49.33;;;22.08;;
17365;SDS011;8800;50.118;9.900;2024-03-02T00:52:46;47.30;;;22.45;;
17365;SDS011;8800;50.118;9.900;2024-03-02T00:55:15;44.28;;;20.92;;
17365;SDS011;8800;50.118;9.900;2024-03-02T00:57:41;45.28;;;21.88;;
17365;SDS011;8800;50.118;9.900;2024-03-02T01:00:09;43.63;;;22.45;;
17365;SDS011;8800;50.118;9.900;2024-03-02T01:02:40;43.85;;;21.50;;
17365;SDS011;8800;50.118;9.900;2024-03-02T01:05:07;44.20;;;22.05;;
17365;SDS011;8800;50.118;9.900;2024-03-02T01:07:34;43.45;;;21.70;;
17365;SDS011;8800;50.118;9.900;2024-03-02T01:10:00;42.97;;;21.23;;
17365;SDS011;8800;50.118;9.900;2024-03-02T01:12:28;43.95;;;21.58;;
17365;SDS011;8800;50.118;9.900;2024-03-02T01:14:55;42.95;;;20.23;;
17365;SDS011;8800;50.118;9.900;2024-03-02T01:17:21;43.63;;;20.65;;
17365;SDS011;8800;50.118;9.900;2024-03-02T01:19:48;46.78;;;21.48;;
17365;SDS011;8800;50.118;9.900;2024-03-02T01:22:15;45.42;;;21.33;;
17365;SDS011;8800;50.118;9.900;2024-03-02T01:24:43;47.78;;;22.70;;
17365;SDS011;8800;50.118;9.900;2024-03-02T01:27:09;44.30;;;22.25;;
17365;SDS011;8800;50.118;9.900;2024-03-02T01:29:37;49.80;;;22.75;;
17365;SDS011;8800;50.118;9.900;2024-03-02T01:32:04;45.97;;;22.17;;
17365;SDS011;8800;50.118;9.900;2024-03-02T01:34:30;42.65;;;21.23;;
17365;SDS011;8800;50.118;9.900;2024-03-02T01:36:57;45.97;;;21.35;;
17365;SDS011;8800;50.118;9.900;2024-03-02T01:39:23;41.38;;;20.38;;
17365;SDS011;8800;50.118;9.900;2024-03-02T01:41:50;43.55;;;20.48;;
17365;SDS011;8800;50.118;9.900;2024-03-02T01:44:16;47.67;;;21.25;;
17365;SDS011;8800;50.118;9.900;2024-03-02T01:46:44;42.15;;;20.52;;
17365;SDS011;8800;50.118;9.900;2024-03-02T01:49:11;40.97;;;20.08;;
17365;SDS011;8800;50.118;9.900;2024-03-02T01:51:37;36.83;;;19.00;;
17365;SDS011;8800;50.118;9.900;2024-03-02T01:54:04;44.95;;;20.05;;
17365;SDS011;8800;50.118;9.900;2024-03-02T01:56:30;40.15;;;19.40;;
17365;SDS011;8800;50.118;9.900;2024-03-02T01:58:57;43.08;;;20.55;;
17365;SDS011;8800;50.118;9.900;2024-03-02T02:01:23;40.67;;;19.98;;
17365;SDS011;8800;50.118;9.900;2024-03-02T02:03:51;42.28;;;20.92;;
17365;SDS011;8800;50.118;9.900;2024-03-02T02:06:18;41.83;;;20.02;;
17365;SDS011;8800;50.118;9.900;2024-03-02T02:08:44;40.40;;;19.98;;
17365;SDS011;8800;50.118;9.900;2024-03-02T02:11:13;40.95;;;19.48;;
17365;SDS011;8800;50.118;9.900;2024-03-02T02:13:40;40.80;;;20.05;;
17365;SDS011;8800;50.118;9.900;2024-03-02T02:16:07;42.75;;;19.80;;
17365;SDS011;8800;50.118;9.900;2024-03-02T02:18:34;44.00;;;20.92;;
17365;SDS011;8800;50.118;9.900;2024-03-02T02:21:02;41.95;;;20.73;;
17365;SDS011;8800;50.118;9.900;2024-03-02T02:23:30;48.58;;;22.48;;
17365;SDS011;8800;50.118;9.900;2024-03-02T02:25:56;42.80;;;22.00;;
17365;SDS011;8800;50.118;9.900;2024-03-02T02:28:23;42.40;;;20.83;;
17365;SDS011;8800;50.118;9.900;2024-03-02T02:30:49;41.78;;;20.55;;
17365;SDS011;8800;50.118;9.900;2024-03-02T02:33:16;43.95;;;21.35;;
17365;SDS011;8800;50.118;9.900;2024-03-02T02:35:42;45.85;;;21.13;;
17365;SDS011;8800;50.118;9.900;2024-03-02T02:38:09;44.38;;;20.83;;
17365;SDS011;8800;50.118;9.900;2024-03-02T02:40:37;43.70;;;20.52;;
17365;SDS011;8800;50.118;9.900;2024-03-02T02:43:03;39.45;;;19.33;;
17365;SDS011;8800;50.118;9.900;2024-03-02T02:45:30;41.35;;;19.48;;
17365;SDS011;8800;50.118;9.900;2024-03-02T02:47:56;43.67;;;20.85;;
17365;SDS011;8800;50.118;9.900;2024-03-02T02:50:22;45.08;;;19.60;;
17365;SDS011;8800;50.118;9.900;2024-03-02T02:52:49;43.45;;;19.00;;
17365;SDS011;8800;50.118;9.900;2024-03-02T02:55:16;45.20;;;20.33;;
17365;SDS011;8800;50.118;9.900;2024-03-02T02:57:43;39.85;;;19.02;;
17365;SDS011;8800;50.118;9.900;2024-03-02T03:00:12;38.38;;;19.48;;
17365;SDS011;8800;50.118;9.900;2024-03-02T03:02:40;42.20;;;19.88;;
17365;SDS011;8800;50.118;9.900;2024-03-02T03:05:07;39.72;;;18.77;;
17365;SDS011;8800;50.118;9.900;2024-03-02T03:07:34;38.58;;;19.52;;
17365;SDS011;8800;50.118;9.900;2024-03-02T03:10:01;39.42;;;19.83;;
17365;SDS011;8800;50.118;9.900;2024-03-02T03:12:28;36.08;;;18.27;;
17365;SDS011;8800;50.118;9.900;2024-03-02T03:14:56;40.67;;;19.58;;
17365;SDS011;8800;50.118;9.900;2024-03-02T03:17:23;41.53;;;19.30;;
17365;SDS011;8800;50.118;9.900;2024-03-02T03:19:49;48.97;;;24.08;;
17365;SDS011;8800;50.118;9.900;2024-03-02T03:22:16;54.10;;;23.80;;
17365;SDS011;8800;50.118;9.900;2024-03-02T03:24:45;55.75;;;27.52;;
17365;SDS011;8800;50.118;9.900;2024-03-02T03:27:12;51.25;;;24.90;;
17365;SDS011;8800;50.118;9.900;2024-03-02T03:29:39;47.70;;;23.23;;
17365;SDS011;8800;50.118;9.900;2024-03-02T03:32:07;46.83;;;22.23;;
17365;SDS011;8800;50.118;9.900;2024-03-02T03:34:33;51.28;;;23.67;;
17365;SDS011;8800;50.118;9.900;2024-03-02T03:37:00;48.28;;;22.02;;
17365;SDS011;8800;50.118;9.900;2024-03-02T03:39:26;44.95;;;22.13;;
17365;SDS011;8800;50.118;9.900;2024-03-02T03:41:53;44.17;;;20.77;;
17365;SDS011;8800;50.118;9.900;2024-03-02T03:44:20;40.38;;;21.38;;
17365;SDS011;8800;50.118;9.900;2024-03-02T03:46:46;39.33;;;19.65;;
17365;SDS011;8800;50.118;9.900;2024-03-02T03:49:14;40.00;;;19.85;;
17365;SDS011;8800;50.118;9.900;2024-03-02T03:51:41;43.33;;;20.08;;
17365;SDS011;8800;50.118;9.900;2024-03-02T03:54:07;38.92;;;19.52;;
17365;SDS011;8800;50.118;9.900;2024-03-02T03:56:36;43.13;;;19.75;;
17365;SDS011;8800;50.118;9.900;2024-03-02T03:59:02;42.00;;;20.42;;
17365;SDS011;8800;50.118;9.900;2024-03-02T04:01:29;41.92;;;20.00;;
17365;SDS011;8800;50.118;9.900;2024-03-02T04:03:56;40.85;;;18.83;;
17365;SDS011;8800;50.118;9.900;2024-03-02T04:06:24;44.55;;;20.10;;
17365;SDS011;8800;50.118;9.900;2024-03-02T04:08:51;46.03;;;21.60;;
17365;SDS011;8800;50.118;9.900;2024-03-02T04:11:17;46.00;;;21.90;;
17365;SDS011;8800;50.118;9.900;2024-03-02T04:13:44;42.88;;;20.33;;
17365;SDS011;8800;50.118;9.900;2024-03-02T04:16:11;40.58;;;18.80;;
17365;SDS011;8800;50.118;9.900;2024-03-02T04:18:37;41.95;;;18.92;;
17365;SDS011;8800;50.118;9.900;2024-03-02T04:21:04;42.10;;;19.95;;
17365;SDS011;8800;50.118;9.900;2024-03-02T04:23:32;39.67;;;18.80;;
17365;SDS011;8800;50.118;9.900;2024-03-02T04:25:59;38.38;;;18.73;;
17365;SDS011;8800;50.118;9.900;2024-03-02T04:28:25;42.38;;;19.60;;
17365;SDS011;8800;50.118;9.900;2024-03-02T04:30:52;43.53;;;20.10;;
17365;SDS011;8800;50.118;9.900;2024-03-02T04:33:18;43.80;;;20.75;;
17365;SDS011;8800;50.118;9.900;2024-03-02T04:35:45;43.97;;;19.60;;
17365;SDS011;8800;50.118;9.900;2024-03-02T04:38:11;44.70;;;19.95;;
17365;SDS011;8800;50.118;9.900;2024-03-02T04:40:39;41.15;;;19.27;;
17365;SDS011;8800;50.118;9.900;2024-03-02T04:43:06;42.92;;;19.75;;
17365;SDS011;8800;50.118;9.900;2024-03-02T04:45:34;41.65;;;19.17;;
17365;SDS011;8800;50.118;9.900;2024-03-02T04:48:00;42.50;;;18.70;;
17365;SDS011;8800;50.118;9.900;2024-03-02T04:50:27;39.28;;;19.08;;
17365;SDS011;8800;50.118;9.900;2024-03-02T04:52:53;39.30;;;18.63;;
17365;SDS011;8800;50.118;9.900;2024-03-02T04:55:20;40.35;;;18.17;;
17365;SDS011;8800;50.118;9.900;2024-03-02T04:58:11;38.10;;;18.25;;
17365;SDS011;8800;50.118;9.900;2024-03-02T05:00:38;42.33;;;18.30;;
17365;SDS011;8800;50.118;9.900;2024-03-02T05:03:04;44.42;;;20.17;;
17365;SDS011;8800;50.118;9.900;2024-03-02T05:05:31;40.47;;;18.80;;
17365;SDS011;8800;50.118;9.900;2024-03-02T05:07:57;41.15;;;20.75;;
17365;SDS011;8800;50.118;9.900;2024-03-02T05:10:24;51.00;;;22.90;;
17365;SDS011;8800;50.118;9.900;2024-03-02T05:12:51;48.97;;;23.95;;
17365;SDS011;8800;50.118;9.900;2024-03-02T05:15:23;50.45;;;23.10;;
17365;SDS011;8800;50.118;9.900;2024-03-02T05:17:50;53.65;;;22.73;;
17365;SDS011;8800;50.118;9.900;2024-03-02T05:20:16;61.15;;;26.65;;
17365;SDS011;8800;50.118;9.900;2024-03-02T05:22:43;60.30;;;26.17;;
17365;SDS011;8800;50.118;9.900;2024-03-02T05:25:09;70.22;;;26.25;;
17365;SDS011;8800;50.118;9.900;2024-03-02T05:27:36;83.93;;;28.67;;
17365;SDS011;8800;50.118;9.900;2024-03-02T05:30:03;67.50;;;26.42;;
17365;SDS011;8800;50.118;9.900;2024-03-02T05:32:32;64.18;;;23.85;;
17365;SDS011;8800;50.118;9.900;2024-03-02T05:34:59;60.97;;;24.77;;
17365;SDS011;8800;50.118;9.900;2024-03-02T05:37:25;69.13;;;25.15;;
17365;SDS011;8800;50.118;9.900;2024-03-02T05:39:52;66.65;;;24.52;;
17365;SDS011;8800;50.118;9.900;2024-03-02T05:42:19;66.10;;;25.40;;
17365;SDS011;8800;50.118;9.900;2024-03-02T05:44:45;71.15;;;25.60;;
17365;SDS011;8800;50.118;9.900;2024-03-02T05:47:12;146.40;;;27.58;;
17365;SDS011;8800;50.118;9.900;2024-03-02T05:49:40;67.85;;;26.33;;
17365;SDS011;8800;50.118;9.900;2024-03-02T05:52:08;93.20;;;28.35;;
17365;SDS011;8800;50.118;9.900;2024-03-02T05:54:34;83.82;;;27.95;;
17365;SDS011;8800;50.118;9.900;2024-03-02T05:57:01;104.28;;;27.70;;
17365;SDS011;8800;50.118;9.900;2024-03-02T05:59:42;120.07;;;26.15;;
17365;SDS011;8800;50.118;9.900;2024-03-02T06:02:08;97.43;;;26.27;;
17365;SDS011;8800;50.118;9.900;2024-03-02T06:04:35;106.20;;;24.13;;
17365;SDS011;8800;50.118;9.900;2024-03-02T06:07:03;112.40;;;24.20;;
17365;SDS011;8800;50.118;9.900;2024-03-02T06:09:29;112.88;;;23.35;;
17365;SDS011;8800;50.118;9.900;2024-03-02T06:11:56;71.05;;;22.42;;
17365;SDS011;8800;50.118;9.900;2024-03-02T06:14:22;103.57;;;22.35;;
17365;SDS011;8800;50.118;9.900;2024-03-02T06:16:49;96.45;;;20.25;;
17365;SDS011;8800;50.118;9.900;2024-03-02T06:19:15;108.85;;;19.65;;
17365;SDS011;8800;50.118;9.900;2024-03-02T06:21:43;63.90;;;18.33;;
17365;SDS011;8800;50.118;9.900;2024-03-02T06:24:11;102.55;;;21.42;;
17365;SDS011;8800;50.118;9.900;2024-03-02T06:26:37;81.93;;;19.58;;
17365;SDS011;8800;50.118;9.900;2024-03-02T06:29:04;66.75;;;19.38;;
17365;SDS011;8800;50.118;9.900;2024-03-02T06:31:31;82.18;;;19.08;;
17365;SDS011;8800;50.118;9.900;2024-03-02T06:33:57;88.30;;;19.98;;
17365;SDS011;8800;50.118;9.900;2024-03-02T06:36:24;69.68;;;19.77;;
17365;SDS011;8800;50.118;9.900;2024-03-02T06:38:51;115.50;;;19.90;;
17365;SDS011;8800;50.118;9.900;2024-03-02T06:41:18;56.38;;;19.00;;
17365;SDS011;8800;50.118;9.900;2024-03-02T06:43:45;64.32;;;18.60;;
17365;SDS011;8800;50.118;9.900;2024-03-02T06:46:11;77.50;;;19.38;;
17365;SDS011;8800;50.118;9.900;2024-03-02T06:48:40;48.00;;;17.88;;
17365;SDS011;8800;50.118;9.900;2024-03-02T06:51:06;57.15;;;20.05;;
17365;SDS011;8800;50.118;9.900;2024-03-02T06:53:33;67.47;;;19.00;;
17365;SDS011;8800;50.118;9.900;2024-03-02T06:55:59;85.68;;;19.10;;
17365;SDS011;8800;50.118;9.900;2024-03-02T06:58:28;69.40;;;19.67;;
17365;SDS011;8800;50.118;9.900;2024-03-02T07:00:54;46.95;;;18.50;;
17365;SDS011;8800;50.118;9.900;2024-03-02T07:03:21;51.58;;;18.38;;
17365;SDS011;8800;50.118;9.900;2024-03-02T07:05:48;95.72;;;20.00;;
17365;SDS011;8800;50.118;9.900;2024-03-02T07:08:14;49.22;;;19.33;;
17365;SDS011;8800;50.118;9.900;2024-03-02T07:10:41;86.05;;;23.98;;
17365;SDS011;8800;50.118;9.900;2024-03-02T07:13:07;82.38;;;26.65;;
17365;SDS011;8800;50.118;9.900;2024-03-02T07:15:35;81.15;;;22.55;;
17365;SDS011;8800;50.118;9.900;2024-03-02T07:18:31;83.15;;;20.10;;
17365;SDS011;8800;50.118;9.900;2024-03-02T07:20:58;111.03;;;25.13;;
17365;SDS011;8800;50.118;9.900;2024-03-02T07:23:26;67.72;;;20.85;;
17365;SDS011;8800;50.118;9.900;2024-03-02T07:25:52;94.22;;;23.98;;
17365;SDS011;8800;50.118;9.900;2024-03-02T07:28:21;67.82;;;25.25;;
17365;SDS011;8800;50.118;9.900;2024-03-02T07:30:50;73.00;;;25.20;;
17365;SDS011;8800;50.118;9.900;2024-03-02T07:33:23;58.45;;;23.27;;
17365;SDS011;8800;50.118;9.900;2024-03-02T07:35:50;57.03;;;21.60;;
17365;SDS011;8800;50.118;9.900;2024-03-02T07:38:17;61.90;;;20.88;;
17365;SDS011;8800;50.118;9.900;2024-03-02T07:40:44;46.15;;;20.67;;
17365;SDS011;8800;50.118;9.900;2024-03-02T07:43:10;46.67;;;20.20;;
17365;SDS011;8800;50.118;9.900;2024-03-02T07:45:37;43.13;;;19.92;;
17365;SDS011;8800;50.118;9.900;2024-03-02T07:48:05;43.50;;;20.85;;
17365;SDS011;8800;50.118;9.900;2024-03-02T07:50:32;42.28;;;19.15;;
17365;SDS011;8800;50.118;9.900;2024-03-02T07:53:00;45.47;;;19.73;;
17365;SDS011;8800;50.118;9.900;2024-03-02T07:55:26;50.42;;;19.35;;
17365;SDS011;8800;50.118;9.900;2024-03-02T07:57:53;39.50;;;19.45;;
17365;SDS011;8800;50.118;9.900;2024-03-02T08:00:20;64.03;;;19.70;;
17365;SDS011;8800;50.118;9.900;2024-03-02T08:02:47;53.65;;;19.00;;
17365;SDS011;8800;50.118;9.900;2024-03-02T08:05:17;43.13;;;20.10;;
17365;SDS011;8800;50.118;9.900;2024-03-02T08:07:44;46.53;;;20.83;;
17365;SDS011;8800;50.118;9.900;2024-03-02T08:10:11;49.10;;;21.67;;
17365;SDS011;8800;50.118;9.900;2024-03-02T08:12:38;43.78;;;20.63;;
17365;SDS011;8800;50.118;9.900;2024-03-02T08:15:05;41.55;;;20.05;;
17365;SDS011;8800;50.118;9.900;2024-03-02T08:17:32;38.25;;;18.95;;
17365;SDS011;8800;50.118;9.900;2024-03-02T08:19:58;34.47;;;18.15;;
17365;SDS011;8800;50.118;9.900;2024-03-02T08:22:26;37.13;;;19.77;;
17365;SDS011;8800;50.118;9.900;2024-03-02T08:24:53;34.92;;;18.45;;
17365;SDS011;8800;50.118;9.900;2024-03-02T08:27:19;34.05;;;17.52;;
17365;SDS011;8800;50.118;9.900;2024-03-02T08:29:46;31.63;;;17.20;;
17365;SDS011;8800;50.118;9.900;2024-03-02T08:32:13;33.20;;;16.70;;
17365;SDS011;8800;50.118;9.900;2024-03-02T08:34:40;35.30;;;18.15;;
17365;SDS011;8800;50.118;9.900;2024-03-02T08:37:06;31.13;;;16.65;;
17365;SDS011;8800;50.118;9.900;2024-03-02T08:39:34;37.20;;;18.20;;
17365;SDS011;8800;50.118;9.900;2024-03-02T08:42:01;34.83;;;18.40;;
17365;SDS011;8800;50.118;9.900;2024-03-02T08:44:29;37.05;;;17.70;;
17365;SDS011;8800;50.118;9.900;2024-03-02T08:46:56;33.72;;;17.83;;
17365;SDS011;8800;50.118;9.900;2024-03-02T08:49:22;35.03;;;18.30;;
17365;SDS011;8800;50.118;9.900;2024-03-02T08:51:49;35.45;;;18.50;;
17365;SDS011;8800;50.118;9.900;2024-03-02T08:54:19;33.33;;;17.27;;
17365;SDS011;8800;50.118;9.900;2024-03-02T08:56:47;46.08;;;23.20;;
17365;SDS011;8800;50.118;9.900;2024-03-02T08:59:14;41.97;;;21.60;;
17365;SDS011;8800;50.118;9.900;2024-03-02T09:01:40;36.63;;;19.73;;
17365;SDS011;8800;50.118;9.900;2024-03-02T09:04:07;39.08;;;18.60;;
17365;SDS011;8800;50.118;9.900;2024-03-02T09:06:33;35.78;;;18.75;;
17365;SDS011;8800;50.118;9.900;2024-03-02T09:09:00;35.08;;;19.23;;
17365;SDS011;8800;50.118;9.900;2024-03-02T09:11:26;35.95;;;19.05;;
17365;SDS011;8800;50.118;9.900;2024-03-02T09:13:54;35.28;;;18.75;;
17365;SDS011;8800;50.118;9.900;2024-03-02T09:16:22;34.70;;;18.55;;
17365;SDS011;8800;50.118;9.900;2024-03-02T09:18:55;36.15;;;18.95;;
17365;SDS011;8800;50.118;9.900;2024-03-02T09:21:22;35.38;;;18.23;;
17365;SDS011;8800;50.118;9.900;2024-03-02T09:23:48;34.35;;;18.13;;
17365;SDS011;8800;50.118;9.900;2024-03-02T09:26:17;34.03;;;18.67;;
17365;SDS011;8800;50.118;9.900;2024-03-02T09:28:45;37.65;;;19.27;;
17365;SDS011;8800;50.118;9.900;2024-03-02T09:31:13;35.90;;;18.45;;
17365;SDS011;8800;50.118;9.900;2024-03-02T09:33:40;34.58;;;18.15;;
17365;SDS011;8800;50.118;9.900;2024-03-02T09:36:16;35.00;;;18.02;;
17365;SDS011;8800;50.118;9.900;2024-03-02T09:38:42;33.72;;;18.30;;
17365;SDS011;8800;50.118;9.900;2024-03-02T09:41:09;32.05;;;17.85;;
17365;SDS011;8800;50.118;9.900;2024-03-02T09:43:35;36.00;;;18.80;;
17365;SDS011;8800;50.118;9.900;2024-03-02T09:46:02;32.95;;;17.67;;
17365;SDS011;8800;50.118;9.900;2024-03-02T09:48:30;32.55;;;17.23;;
17365;SDS011;8800;50.118;9.900;2024-03-02T09:50:57;35.22;;;17.83;;
17365;SDS011;8800;50.118;9.900;2024-03-02T09:53:23;36.80;;;19.13;;
17365;SDS011;8800;50.118;9.900;2024-03-02T09:55:51;32.53;;;18.38;;
17365;SDS011;8800;50.118;9.900;2024-03-02T09:58:17;35.35;;;18.85;;
17365;SDS011;8800;50.118;9.900;2024-03-02T10:00:44;35.85;;;20.20;;
17365;SDS011;8800;50.118;9.900;2024-03-02T10:03:11;41.05;;;21.33;;
17365;SDS011;8800;50.118;9.900;2024-03-02T10:05:39;42.13;;;22.48;;
17365;SDS011;8800;50.118;9.900;2024-03-02T10:08:05;49.47;;;23.40;;
17365;SDS011;8800;50.118;9.900;2024-03-02T10:10:35;48.72;;;23.83;;
17365;SDS011;8800;50.118;9.900;2024-03-02T10:13:05;49.47;;;23.38;;
17365;SDS011;8800;50.118;9.900;2024-03-02T10:15:32;41.40;;;20.80;;
17365;SDS011;8800;50.118;9.900;2024-03-02T10:17:58;41.30;;;20.73;;
17365;SDS011;8800;50.118;9.900;2024-03-02T10:20:25;35.00;;;19.58;;
17365;SDS011;8800;50.118;9.900;2024-03-02T10:22:55;39.65;;;21.50;;
17365;SDS011;8800;50.118;9.900;2024-03-02T10:25:29;32.95;;;18.95;;
17365;SDS011;8800;50.118;9.900;2024-03-02T10:27:57;30.30;;;15.35;;
17365;SDS011;8800;50.118;9.900;2024-03-02T10:30:24;29.02;;;14.70;;
17365;SDS011;8800;50.118;9.900;2024-03-02T10:32:50;29.23;;;14.82;;
17365;SDS011;8800;50.118;9.900;2024-03-02T10:35:17;28.65;;;15.30;;
17365;SDS011;8800;50.118;9.900;2024-03-02T10:37:44;26.02;;;14.13;;
17365;SDS011;8800;50.118;9.900;2024-03-02T10:40:12;30.83;;;14.10;;
17365;SDS011;8800;50.118;9.900;2024-03-02T10:42:39;24.83;;;14.50;;
17365;SDS011;8800;50.118;9.900;2024-03-02T10:45:07;26.33;;;14.52;;
17365;SDS011;8800;50.118;9.900;2024-03-02T10:47:35;24.90;;;13.40;;
17365;SDS011;8800;50.118;9.900;2024-03-02T10:50:03;23.65;;;13.35;;
17365;SDS011;8800;50.118;9.900;2024-03-02T10:52:33;26.30;;;13.85;;
17365;SDS011;8800;50.118;9.900;2024-03-02T10:54:59;24.10;;;13.27;;
17365;SDS011;8800;50.118;9.900;2024-03-02T10:57:28;23.90;;;13.85;;
17365;SDS011;8800;50.118;9.900;2024-03-02T10:59:57;23.00;;;12.52;;
17365;SDS011;8800;50.118;9.900;2024-03-02T11:02:28;20.52;;;12.55;;
17365;SDS011;8800;50.118;9.900;2024-03-02T11:04:57;21.35;;;12.82;;
17365;SDS011;8800;50.118;9.900;2024-03-02T11:07:25;22.38;;;12.90;;
17365;SDS011;8800;50.118;9.900;2024-03-02T11:09:54;23.27;;;13.25;;
17365;SDS011;8800;50.118;9.900;2024-03-02T11:12:23;22.48;;;12.90;;
17365;SDS011;8800;50.118;9.900;2024-03-02T11:14:55;22.52;;;12.77;;
17365;SDS011;8800;50.118;9.900;2024-03-02T11:17:22;21.10;;;12.02;;
17365;SDS011;8800;50.118;9.900;2024-03-02T11:19:49;20.08;;;11.80;;
17365;SDS011;8800;50.118;9.900;2024-03-02T11:22:16;21.52;;;12.80;;
17365;SDS011;8800;50.118;9.900;2024-03-02T11:24:47;21.40;;;12.43;;
17365;SDS011;8800;50.118;9.900;2024-03-02T11:27:14;19.92;;;12.25;;
17365;SDS011;8800;50.118;9.900;2024-03-02T11:29:44;22.42;;;11.90;;
17365;SDS011;8800;50.118;9.900;2024-03-02T11:32:16;21.35;;;12.52;;
17365;SDS011;8800;50.118;9.900;2024-03-02T11:34:44;20.48;;;11.73;;
17365;SDS011;8800;50.118;9.900;2024-03-02T11:37:12;22.75;;;12.00;;
17365;SDS011;8800;50.118;9.900;2024-03-02T11:39:38;18.13;;;10.68;;
17365;SDS011;8800;50.118;9.900;2024-03-02T11:42:05;19.30;;;10.40;;
17365;SDS011;8800;50.118;9.900;2024-03-02T11:44:33;19.23;;;10.77;;
17365;SDS011;8800;50.118;9.900;2024-03-02T11:47:00;17.60;;;10.88;;
17365;SDS011;8800;50.118;9.900;2024-03-02T11:49:37;17.23;;;10.52;;
17365;SDS011;8800;50.118;9.900;2024-03-02T11:52:05;18.55;;;10.82;;
17365;SDS011;8800;50.118;9.900;2024-03-02T11:54:32;20.90;;;11.55;;
17365;SDS011;8800;50.118;9.900;2024-03-02T11:56:59;18.10;;;10.80;;
17365;SDS011;8800;50.118;9.900;2024-03-02T11:59:28;19.77;;;10.70;;
17365;SDS011;8800;50.118;9.900;2024-03-02T12:01:56;18.77;;;10.98;;
17365;SDS011;8800;50.118;9.900;2024-03-02T12:04:22;19.35;;;10.27;;
17365;SDS011;8800;50.118;9.900;2024-03-02T12:06:54;15.98;;;8.85;;
17365;SDS011;8800;50.118;9.900;2024-03-02T12:09:21;15.82;;;9.73;;
17365;SDS011;8800;50.118;9.900;2024-03-02T12:12:00;14.07;;;8.43;;
17365;SDS011;8800;50.118;9.900;2024-03-02T12:14:27;14.70;;;8.63;;
17365;SDS011;8800;50.118;9.900;2024-03-02T12:16:54;15.57;;;9.18;;
17365;SDS011;8800;50.118;9.900;2024-03-02T12:19:21;14.18;;;8.18;;
17365;SDS011;8800;50.118;9.900;2024-03-02T12:21:48;17.27;;;9.57;;
17365;SDS011;8800;50.118;9.900;2024-03-02T12:24:16;14.38;;;9.15;;
17365;SDS011;8800;50.118;9.900;2024-03-02T12:26:43;15.88;;;8.93;;
17365;SDS011;8800;50.118;9.900;2024-03-02T12:29:09;16.70;;;9.27;;
17365;SDS011;8800;50.118;9.900;2024-03-02T12:31:36;14.48;;;8.82;;
17365;SDS011;8800;50.118;9.900;2024-03-02T12:34:03;16.27;;;8.75;;
17365;SDS011;8800;50.118;9.900;2024-03-02T12:36:30;13.07;;;7.72;;
17365;SDS011;8800;50.118;9.900;2024-03-02T12:38:57;11.02;;;7.45;;
17365;SDS011;8800;50.118;9.900;2024-03-02T12:41:25;11.30;;;7.13;;
17365;SDS011;8800;50.118;9.900;2024-03-02T12:43:51;11.55;;;6.68;;
17365;SDS011;8800;50.118;9.900;2024-03-02T12:46:18;10.55;;;6.20;;
17365;SDS011;8800;50.118;9.900;2024-03-02T12:48:44;9.70;;;6.28;;
17365;SDS011;8800;50.118;9.900;2024-03-02T12:51:11;8.65;;;5.55;;
17365;SDS011;8800;50.118;9.900;2024-03-02T12:53:39;11.35;;;5.97;;
17365;SDS011;8800;50.118;9.900;2024-03-02T12:56:06;9.05;;;6.07;;
17365;SDS011;8800;50.118;9.900;2024-03-02T12:58:39;10.07;;;5.40;;
17365;SDS011;8800;50.118;9.900;2024-03-02T13:01:06;9.23;;;5.60;;
17365;SDS011;8800;50.118;9.900;2024-03-02T13:03:34;8.45;;;5.40;;
17365;SDS011;8800;50.118;9.900;2024-03-02T13:06:01;7.90;;;5.72;;
17365;SDS011;8800;50.118;9.900;2024-03-02T13:08:28;9.50;;;5.75;;
17365;SDS011;8800;50.118;9.900;2024-03-02T13:10:54;7.35;;;5.43;;
17365;SDS011;8800;50.118;9.900;2024-03-02T13:13:21;7.85;;;5.45;;
17365;SDS011;8800;50.118;9.900;2024-03-02T13:15:49;6.63;;;5.53;;
17365;SDS011;8800;50.118;9.900;2024-03-02T13:18:17;8.45;;;5.63;;
17365;SDS011;8800;50.118;9.900;2024-03-02T13:20:44;6.43;;;4.95;;
17365;SDS011;8800;50.118;9.900;2024-03-02T13:23:10;6.65;;;5.35;;
17365;SDS011;8800;50.118;9.900;2024-03-02T13:25:37;7.13;;;5.40;;
17365;SDS011;8800;50.118;9.900;2024-03-02T13:28:03;5.40;;;4.80;;
17365;SDS011;8800;50.118;9.900;2024-03-02T13:30:30;6.65;;;4.97;;
17365;SDS011;8800;50.118;9.900;2024-03-02T13:32:58;5.20;;;4.63;;
17365;SDS011;8800;50.118;9.900;2024-03-02T13:35:25;5.28;;;4.22;;
17365;SDS011;8800;50.118;9.900;2024-03-02T13:37:51;5.32;;;4.82;;
17365;SDS011;8800;50.118;9.900;2024-03-02T13:40:18;5.10;;;4.55;;
17365;SDS011;8800;50.118;9.900;2024-03-02T13:42:45;5.13;;;4.55;;
17365;SDS011;8800;50.118;9.900;2024-03-02T13:45:12;4.50;;;4.07;;
17365;SDS011;8800;50.118;9.900;2024-03-02T13:47:38;7.07;;;4.55;;
17365;SDS011;8800;50.118;9.900;2024-03-02T13:50:07;5.25;;;4.75;;
17365;SDS011;8800;50.118;9.900;2024-03-02T13:52:33;5.57;;;4.60;;
17365;SDS011;8800;50.118;9.900;2024-03-02T13:55:00;7.40;;;4.45;;
17365;SDS011;8800;50.118;9.900;2024-03-02T13:57:27;5.43;;;3.90;;
17365;SDS011;8800;50.118;9.900;2024-03-02T13:59:53;7.00;;;4.47;;
17365;SDS011;8800;50.118;9.900;2024-03-02T14:02:20;6.50;;;4.53;;
17365;SDS011;8800;50.118;9.900;2024-03-02T14:04:48;5.00;;;4.20;;
17365;SDS011;8800;50.118;9.900;2024-03-02T14:07:16;4.55;;;4.05;;
17365;SDS011;8800;50.118;9.900;2024-03-02T14:09:42;4.55;;;3.83;;
17365;SDS011;8800;50.118;9.900;2024-03-02T14:12:10;4.25;;;3.80;;
17365;SDS011;8800;50.118;9.900;2024-03-02T14:14:38;5.10;;;4.07;;
17365;SDS011;8800;50.118;9.900;2024-03-02T14:17:04;4.15;;;3.70;;
17365;SDS011;8800;50.118;9.900;2024-03-02T14:19:31;5.43;;;3.85;;
17365;SDS011;8800;50.118;9.900;2024-03-02T14:21:58;11.98;;;4.32;;
17365;SDS011;8800;50.118;9.900;2024-03-02T14:24:26;4.43;;;3.88;;
17365;SDS011;8800;50.118;9.900;2024-03-02T14:26:54;4.07;;;3.70;;
17365;SDS011;8800;50.118;9.900;2024-03-02T14:29:22;4.68;;;3.80;;
17365;SDS011;8800;50.118;9.900;2024-03-02T14:31:48;5.10;;;3.58;;
17365;SDS011;8800;50.118;9.900;2024-03-02T14:34:15;4.65;;;3.58;;
17365;SDS011;8800;50.118;9.900;2024-03-02T14:36:41;5.75;;;3.70;;
17365;SDS011;8800;50.118;9.900;2024-03-02T14:39:09;3.67;;;3.22;;